createdAt,value
2017-02-15T00:00:13.067Z,4.55
2017-02-15T00:01:22.060Z,4.51
2017-02-15T00:02:31.995Z,4.62
2017-02-15T00:03:40.991Z,4.58
2017-02-15T00:04:49.968Z,4.59
2017-02-15T00:05:58.946Z,4.58
2017-02-15T00:07:08.658Z,4.58
2017-02-15T00:08:17.642Z,4.54
2017-02-15T00:09:27.089Z,4.52
2017-02-15T00:10:36.473Z,4.52
2017-02-15T00:11:45.687Z,4.42
2017-02-15T00:12:54.678Z,4.4
2017-02-15T00:14:03.649Z,4.4
2017-02-15T00:15:13.037Z,4.32
2017-02-15T00:16:22.020Z,4.37
2017-02-15T00:17:31.662Z,4.32
2017-02-15T00:18:40.646Z,4.32
2017-02-15T00:19:49.849Z,4.29
2017-02-15T00:20:58.915Z,4.27
2017-02-15T00:22:07.906Z,4.2
2017-02-15T00:23:16.897Z,4.26
2017-02-15T00:24:25.884Z,4.22
2017-02-15T00:25:34.894Z,4.26
2017-02-15T00:26:44.466Z,4.18
2017-02-15T00:27:53.446Z,4.22
2017-02-15T00:29:02.839Z,4.23
2017-02-15T00:30:12.128Z,4.22
2017-02-15T00:31:21.320Z,4.26
2017-02-15T00:32:30.961Z,4.15
2017-02-15T00:33:40.040Z,4.16
2017-02-15T00:34:49.145Z,4.26
2017-02-15T00:35:58.129Z,4.24
2017-02-15T00:37:07.553Z,4.26
2017-02-15T00:38:16.910Z,4.15
2017-02-15T00:39:25.897Z,4.23
2017-02-15T00:40:35.720Z,4.2
2017-02-15T00:41:45.159Z,4.3
2017-02-15T00:42:54.150Z,4.27
2017-02-15T00:44:03.564Z,4.14
2017-02-15T00:45:13.100Z,4.29
2017-02-15T00:46:22.361Z,4.22
2017-02-15T00:47:31.590Z,4.26
2017-02-15T00:48:40.596Z,4.29
2017-02-15T00:49:49.581Z,4.27
2017-02-15T00:50:59.423Z,4.22
2017-02-15T00:52:08.432Z,4.23
2017-02-15T00:53:17.635Z,4.23
2017-02-15T00:54:27.000Z,4.24
2017-02-15T00:55:36.187Z,4.27
2017-02-15T00:56:45.331Z,4.22
2017-02-15T00:57:54.470Z,4.18
2017-02-15T00:59:03.449Z,4.27
2017-02-15T01:00:12.436Z,4.27
2017-02-15T01:01:22.027Z,4.23
2017-02-15T01:02:31.038Z,4.16
2017-02-15T01:03:40.377Z,4.18
2017-02-15T01:04:49.943Z,4.24
2017-02-15T01:06:00.218Z,4.3
2017-02-15T01:07:09.813Z,4.33
2017-02-15T01:08:18.791Z,4.27
2017-02-15T01:09:28.292Z,4.32
2017-02-15T01:10:37.390Z,4.3
2017-02-15T01:11:46.470Z,4.2
2017-02-15T01:12:55.553Z,4.26
2017-02-15T01:14:04.585Z,4.23
2017-02-15T01:15:13.766Z,4.16
2017-02-15T01:16:22.777Z,4.26
2017-02-15T01:17:31.751Z,4.22
2017-02-15T01:18:40.751Z,4.27
2017-02-15T01:19:49.828Z,4.2
2017-02-15T01:20:59.117Z,4.24
2017-02-15T01:22:08.279Z,4.27
2017-02-15T01:23:17.263Z,4.24
2017-02-15T01:24:26.358Z,4.27
2017-02-15T01:25:35.435Z,4.27
2017-02-15T01:26:44.430Z,4.3
2017-02-15T01:27:53.410Z,4.15
2017-02-15T01:29:02.393Z,4.2
2017-02-15T01:30:11.396Z,4.18
2017-02-15T01:31:20.808Z,4.18
2017-02-15T01:32:29.993Z,4.29
2017-02-15T01:33:39.003Z,4.3
2017-02-15T01:34:47.983Z,4.29
2017-02-15T01:35:56.990Z,4.32
2017-02-15T01:37:06.088Z,4.37
2017-02-15T01:38:15.072Z,4.29
2017-02-15T01:39:24.075Z,4.3
2017-02-15T01:40:33.067Z,4.32
2017-02-15T01:41:42.087Z,4.3
2017-02-15T01:42:51.494Z,4.41
2017-02-15T01:44:00.480Z,4.4
2017-02-15T01:45:09.871Z,4.3
2017-02-15T01:46:18.850Z,4.32
2017-02-15T01:47:27.848Z,4.3
2017-02-15T01:48:36.831Z,4.37
2017-02-15T01:49:45.825Z,4.33
2017-02-15T01:50:55.121Z,4.44
2017-02-15T01:52:04.115Z,4.42
2017-02-15T01:53:13.148Z,4.37
2017-02-15T01:54:22.918Z,4.54
2017-02-15T01:55:32.376Z,4.54
2017-02-15T01:56:42.659Z,4.52
2017-02-15T01:57:51.664Z,4.48
2017-02-15T01:59:00.660Z,4.51
2017-02-15T02:00:10.114Z,4.48
2017-02-15T02:01:19.487Z,4.51
2017-02-15T02:02:29.075Z,4.51
2017-02-15T02:03:38.649Z,4.54
2017-02-15T02:04:49.661Z,4.44
2017-02-15T02:05:59.063Z,4.55
2017-02-15T02:07:08.140Z,4.45
2017-02-15T02:08:17.864Z,4.54
2017-02-15T02:09:26.873Z,4.58
2017-02-15T02:10:36.309Z,4.59
2017-02-15T02:11:46.015Z,4.69
2017-02-15T02:12:55.778Z,4.69
2017-02-15T02:14:05.277Z,4.59
2017-02-15T02:15:14.283Z,4.62
2017-02-15T02:16:23.360Z,4.67
2017-02-15T02:17:32.348Z,4.63
2017-02-15T02:18:41.337Z,4.63
2017-02-15T02:19:50.420Z,4.58
2017-02-15T02:21:00.682Z,4.58
2017-02-15T02:22:11.483Z,4.6
2017-02-15T02:23:20.493Z,4.59
2017-02-15T02:24:30.506Z,4.51
2017-02-15T02:25:39.579Z,4.52
2017-02-15T02:26:48.856Z,4.48
2017-02-15T02:27:57.934Z,4.55
2017-02-15T02:29:07.553Z,4.42
2017-02-15T02:30:16.647Z,4.48
2017-02-15T02:31:26.889Z,4.41
2017-02-15T02:32:35.873Z,4.3
2017-02-15T02:33:45.464Z,4.32
2017-02-15T02:34:54.953Z,4.32
2017-02-15T02:36:04.792Z,4.27
2017-02-15T02:37:13.794Z,4.22
2017-02-15T02:38:23.697Z,4.15
2017-02-15T02:39:32.683Z,4.24
2017-02-15T02:40:42.542Z,4.22
2017-02-15T02:41:51.705Z,4.23
2017-02-15T02:43:02.212Z,4.24
2017-02-15T02:44:11.208Z,4.24
2017-02-15T02:45:21.627Z,4.18
2017-02-15T02:46:30.615Z,4.23
2017-02-15T02:47:40.684Z,4.18
2017-02-15T02:48:49.731Z,4.26
2017-02-15T02:49:59.930Z,4.18
2017-02-15T02:51:10.125Z,4.3
2017-02-15T02:52:19.122Z,4.24
2017-02-15T02:53:30.424Z,4.24
2017-02-15T02:54:39.404Z,4.16
2017-02-15T02:55:49.546Z,4.11
2017-02-15T02:56:58.532Z,4.16
2017-02-15T02:58:08.388Z,4.11
2017-02-15T02:59:17.486Z,4.11
2017-02-15T03:00:27.188Z,4.11
2017-02-15T03:01:36.191Z,4.15
2017-02-15T03:02:46.260Z,4.15
2017-02-15T03:03:55.244Z,4.14
2017-02-15T03:05:05.479Z,4.09
2017-02-15T03:06:14.634Z,4.12
2017-02-15T03:07:23.888Z,4.14
2017-02-15T03:08:32.874Z,4.18
2017-02-15T03:09:43.521Z,4.18
2017-02-15T03:10:52.507Z,4.18
2017-02-15T03:12:03.695Z,4.29
2017-02-15T03:13:13.746Z,4.33
2017-02-15T03:14:23.678Z,4.34
2017-02-15T03:15:33.188Z,4.3
2017-02-15T03:16:42.188Z,4.36
2017-02-15T03:17:53.928Z,4.32
2017-02-15T03:19:03.003Z,4.27
2017-02-15T03:20:14.641Z,4.2
2017-02-15T03:21:23.769Z,4.22
2017-02-15T03:22:34.503Z,4.16
2017-02-15T03:23:44.989Z,4.12
2017-02-15T03:24:53.971Z,4.16
2017-02-15T03:26:05.123Z,4.11
2017-02-15T03:27:14.283Z,4.09
2017-02-15T03:28:23.956Z,4.08
2017-02-15T03:29:33.035Z,4.08
2017-02-15T03:30:42.999Z,4.02
2017-02-15T03:31:52.137Z,3.91
2017-02-15T03:33:03.303Z,3.94
2017-02-15T03:34:12.370Z,3.93
2017-02-15T03:35:22.572Z,3.94
2017-02-15T03:36:32.625Z,3.88
2017-02-15T03:37:43.795Z,3.88
2017-02-15T03:38:55.916Z,3.9
2017-02-15T03:40:06.087Z,3.86
2017-02-15T03:41:15.071Z,3.93
2017-02-15T03:42:25.081Z,3.83
2017-02-15T03:43:34.205Z,3.78
2017-02-15T03:44:44.438Z,3.75
2017-02-15T03:45:53.413Z,3.84
2017-02-15T03:47:04.887Z,3.75
2017-02-15T03:48:13.882Z,3.69
2017-02-15T03:49:25.755Z,3.6
2017-02-15T03:50:36.078Z,3.6
2017-02-15T03:51:45.534Z,3.65
2017-02-15T03:52:57.078Z,3.55
2017-02-15T03:54:06.495Z,3.62
2017-02-15T03:55:17.779Z,3.58
2017-02-15T03:56:26.863Z,3.52
2017-02-15T03:57:37.196Z,3.5
2017-02-15T03:58:47.051Z,3.5
2017-02-15T03:59:56.466Z,3.45
2017-02-15T04:01:06.701Z,3.5
2017-02-15T04:02:16.090Z,3.51
2017-02-15T04:03:25.805Z,3.47
2017-02-15T04:04:34.805Z,3.48
2017-02-15T04:05:44.226Z,3.4
2017-02-15T04:06:53.235Z,3.39
2017-02-15T04:08:03.125Z,3.32
2017-02-15T04:09:12.204Z,3.39
2017-02-15T04:10:22.975Z,3.29
2017-02-15T04:11:32.107Z,3.28
2017-02-15T04:12:42.220Z,3.24
2017-02-15T04:13:51.615Z,3.26
2017-02-15T04:15:01.537Z,3.31
2017-02-15T04:16:10.520Z,3.32
2017-02-15T04:17:19.921Z,3.26
2017-02-15T04:18:28.909Z,3.26
2017-02-15T04:19:39.655Z,3.26
2017-02-15T04:20:49.229Z,3.26
2017-02-15T04:21:58.211Z,3.31
2017-02-15T04:23:07.289Z,3.28
2017-02-15T04:24:16.711Z,3.33
2017-02-15T04:25:25.690Z,3.31
2017-02-15T04:26:40.063Z,3.18
2017-02-15T04:27:49.328Z,3.26
2017-02-15T04:28:58.849Z,3.24
2017-02-15T04:30:08.722Z,3.21
2017-02-15T04:31:17.714Z,3.26
2017-02-15T04:32:27.411Z,3.15
2017-02-15T04:33:36.525Z,3.2
2017-02-15T04:34:46.846Z,3.23
2017-02-15T04:35:55.843Z,3.26
2017-02-15T04:37:07.458Z,3.29
2017-02-15T04:38:17.180Z,3.29
2017-02-15T04:39:26.954Z,3.26
2017-02-15T04:40:36.646Z,3.26
2017-02-15T04:41:45.640Z,3.28
2017-02-15T04:42:55.879Z,3.36
2017-02-15T04:44:04.961Z,3.36
2017-02-15T04:45:16.280Z,3.36
2017-02-15T04:46:25.691Z,3.39
2017-02-15T04:47:36.214Z,3.43
2017-02-15T04:48:45.197Z,3.51
2017-02-15T04:49:54.976Z,3.48
2017-02-15T04:51:04.193Z,3.48
2017-02-15T04:52:13.177Z,3.48
2017-02-15T04:53:22.156Z,3.48
2017-02-15T04:54:31.156Z,3.47
2017-02-15T04:55:40.144Z,3.4
2017-02-15T04:56:49.236Z,3.43
2017-02-15T04:57:58.245Z,3.47
2017-02-15T04:59:07.222Z,3.29
2017-02-15T05:00:16.207Z,3.29
2017-02-15T05:01:25.288Z,3.39
2017-02-15T05:02:34.289Z,3.43
2017-02-15T05:03:43.291Z,3.35
2017-02-15T05:04:52.277Z,3.36
2017-02-15T05:06:01.260Z,3.32
2017-02-15T05:07:10.258Z,3.39
2017-02-15T05:08:19.335Z,3.43
2017-02-15T05:09:28.330Z,3.39
2017-02-15T05:10:37.313Z,3.31
2017-02-15T05:11:46.322Z,3.26
2017-02-15T05:12:55.303Z,3.24
2017-02-15T05:14:04.293Z,3.26
2017-02-15T05:15:13.287Z,3.31
2017-02-15T05:16:22.358Z,3.32
2017-02-15T05:17:31.847Z,3.39
2017-02-15T05:18:40.938Z,3.31
2017-02-15T05:19:49.939Z,3.24
2017-02-15T05:20:58.916Z,3.26
2017-02-15T05:22:07.911Z,3.33
2017-02-15T05:23:16.903Z,3.26
2017-02-15T05:24:25.889Z,3.23
2017-02-15T05:25:34.879Z,3.26
2017-02-15T05:26:43.947Z,3.28
2017-02-15T05:27:52.927Z,3.24
2017-02-15T05:29:01.903Z,3.31
2017-02-15T05:30:10.989Z,3.32
2017-02-15T05:31:19.975Z,3.29
2017-02-15T05:32:28.975Z,3.31
2017-02-15T05:33:37.948Z,3.31
2017-02-15T05:34:47.023Z,3.32
2017-02-15T05:35:56.032Z,3.28
2017-02-15T05:37:05.012Z,3.29
2017-02-15T05:38:14.002Z,3.36
2017-02-15T05:39:23.089Z,3.26
2017-02-15T05:40:32.075Z,3.24
2017-02-15T05:41:41.049Z,3.29
2017-02-15T05:42:50.040Z,3.32
2017-02-15T05:43:59.034Z,3.32
2017-02-15T05:45:08.041Z,3.31
2017-02-15T05:46:17.034Z,3.26
2017-02-15T05:47:26.097Z,3.32
2017-02-15T05:48:35.163Z,3.29
2017-02-15T05:49:44.139Z,3.17
2017-02-15T05:50:53.138Z,3.23
2017-02-15T05:52:02.137Z,3.28
2017-02-15T05:53:11.137Z,3.29
2017-02-15T05:54:20.118Z,3.31
2017-02-15T05:55:29.195Z,3.29
2017-02-15T05:56:38.599Z,3.36
2017-02-15T05:57:47.597Z,3.4
2017-02-15T05:58:56.583Z,3.31
2017-02-15T06:00:05.577Z,3.35
2017-02-15T06:01:14.572Z,3.43
2017-02-15T06:02:23.653Z,3.52
2017-02-15T06:03:32.641Z,3.51
2017-02-15T06:04:41.804Z,3.54
2017-02-15T06:05:50.990Z,3.57
2017-02-15T06:06:59.996Z,3.69
2017-02-15T06:08:09.090Z,3.69
2017-02-15T06:09:18.088Z,3.7
2017-02-15T06:10:27.483Z,3.72
2017-02-15T06:11:36.472Z,3.69
2017-02-15T06:12:45.467Z,3.7
2017-02-15T06:13:54.465Z,3.75
2017-02-15T06:15:03.540Z,3.87
2017-02-15T06:16:13.347Z,3.83
2017-02-15T06:17:22.448Z,3.76
2017-02-15T06:18:31.435Z,3.9
2017-02-15T06:19:40.520Z,3.83
2017-02-15T06:20:49.498Z,3.88
2017-02-15T06:21:58.480Z,3.94
2017-02-15T06:23:07.486Z,3.83
2017-02-15T06:24:16.504Z,3.93
2017-02-15T06:25:25.484Z,3.94
2017-02-15T06:26:34.464Z,3.9
2017-02-15T06:27:43.881Z,3.84
2017-02-15T06:28:52.865Z,3.91
2017-02-15T06:30:01.955Z,3.91
2017-02-15T06:31:11.441Z,3.83
2017-02-15T06:32:20.521Z,3.83
2017-02-15T06:33:29.942Z,3.84
2017-02-15T06:34:38.954Z,3.8
2017-02-15T06:35:47.936Z,3.86
2017-02-15T06:36:57.016Z,3.88
2017-02-15T06:38:06.413Z,3.79
2017-02-15T06:39:15.407Z,3.91
2017-02-15T06:40:24.403Z,3.88
2017-02-15T06:41:33.815Z,3.84
2017-02-15T06:42:42.794Z,3.91
2017-02-15T06:43:51.794Z,3.94
2017-02-15T06:45:00.779Z,3.91
2017-02-15T06:46:09.781Z,3.91
2017-02-15T06:47:18.761Z,3.97
2017-02-15T06:48:27.759Z,3.94
2017-02-15T06:49:36.748Z,3.93
2017-02-15T06:50:45.754Z,3.94
2017-02-15T06:51:54.757Z,4.02
2017-02-15T06:53:03.758Z,3.97
2017-02-15T06:54:12.823Z,3.93
2017-02-15T06:55:21.987Z,3.93
2017-02-15T06:56:30.976Z,3.84
2017-02-15T06:57:39.972Z,3.9
2017-02-15T06:58:49.052Z,3.72
2017-02-15T06:59:58.071Z,3.83
2017-02-15T07:01:07.159Z,3.75
2017-02-15T07:02:16.143Z,3.66
2017-02-15T07:03:25.634Z,3.66
2017-02-15T07:04:34.637Z,3.66
2017-02-15T07:05:43.627Z,3.58
2017-02-15T07:06:52.625Z,3.58
2017-02-15T07:08:02.066Z,3.61
2017-02-15T07:09:11.135Z,3.52
2017-02-15T07:10:20.249Z,3.47
2017-02-15T07:11:29.243Z,3.5
2017-02-15T07:12:39.371Z,3.55
2017-02-15T07:13:48.619Z,3.52
2017-02-15T07:14:57.652Z,3.51
2017-02-15T07:16:06.641Z,3.45
2017-02-15T07:17:15.625Z,3.45
2017-02-15T07:18:24.603Z,3.45
2017-02-15T07:19:34.426Z,3.42
2017-02-15T07:20:43.851Z,3.48
2017-02-15T07:21:52.844Z,3.45
2017-02-15T07:23:02.320Z,3.48
2017-02-15T07:24:11.315Z,3.52
2017-02-15T07:25:20.307Z,3.55
2017-02-15T07:26:29.712Z,3.62
2017-02-15T07:27:38.716Z,3.57
2017-02-15T07:28:47.699Z,3.58
2017-02-15T07:30:03.678Z,3.65
2017-02-15T07:31:18.479Z,3.57
2017-02-15T07:32:27.462Z,3.58
2017-02-15T07:33:36.468Z,3.68
2017-02-15T07:34:45.444Z,3.58
2017-02-15T07:35:54.443Z,3.69
2017-02-15T07:37:03.432Z,3.69
2017-02-15T07:38:12.424Z,3.68
2017-02-15T07:39:21.431Z,3.78
2017-02-15T07:40:30.414Z,3.76
2017-02-15T07:41:39.432Z,3.84
2017-02-15T07:42:48.421Z,3.75
2017-02-15T07:43:57.545Z,3.9
2017-02-15T07:45:06.522Z,3.78
2017-02-15T07:46:15.595Z,3.83
2017-02-15T07:47:24.576Z,3.86
2017-02-15T07:48:33.682Z,3.78
2017-02-15T07:49:42.672Z,3.83
2017-02-15T07:50:51.667Z,3.79
2017-02-15T07:52:00.791Z,3.83
2017-02-15T07:53:10.221Z,3.86
2017-02-15T07:54:19.215Z,3.86
2017-02-15T07:55:28.199Z,3.9
2017-02-15T07:56:37.208Z,3.79
2017-02-15T07:57:46.191Z,3.8
2017-02-15T07:58:55.356Z,3.83
2017-02-15T08:00:04.437Z,3.88
2017-02-15T08:01:13.448Z,3.91
2017-02-15T08:02:22.436Z,3.88
2017-02-15T08:03:31.424Z,3.9
2017-02-15T08:04:40.822Z,3.84
2017-02-15T08:05:49.847Z,3.98
2017-02-15T08:06:58.823Z,3.96
2017-02-15T08:08:07.804Z,3.97
2017-02-15T08:09:16.783Z,4.02
2017-02-15T08:10:25.787Z,3.98
2017-02-15T08:11:34.781Z,4.15
2017-02-15T08:12:43.791Z,4.06
2017-02-15T08:13:52.779Z,4.14
2017-02-15T08:15:01.778Z,4.2
2017-02-15T08:16:10.824Z,4.2
2017-02-15T08:17:20.222Z,4.27
2017-02-15T08:18:29.228Z,4.23
2017-02-15T08:19:38.337Z,4.3
2017-02-15T08:20:47.317Z,4.29
2017-02-15T08:21:56.820Z,4.37
2017-02-15T08:23:05.815Z,4.29
2017-02-15T08:24:14.886Z,4.29
2017-02-15T08:25:23.880Z,4.36
2017-02-15T08:26:32.876Z,4.47
2017-02-15T08:27:41.855Z,4.48
2017-02-15T08:28:50.831Z,4.42
2017-02-15T08:29:59.820Z,4.37
2017-02-15T08:31:08.836Z,4.4
2017-02-15T08:32:17.913Z,4.48
2017-02-15T08:33:26.898Z,4.44
2017-02-15T08:34:36.294Z,4.52
2017-02-15T08:35:45.286Z,4.5
2017-02-15T08:36:54.281Z,4.58
2017-02-15T08:38:03.389Z,4.72
2017-02-15T08:39:12.375Z,4.78
2017-02-15T08:40:21.482Z,4.8
2017-02-15T08:41:30.475Z,4.91
2017-02-15T08:42:39.456Z,4.97
2017-02-15T08:43:48.474Z,4.88
2017-02-15T08:44:57.469Z,4.86
2017-02-15T08:46:06.475Z,4.96
2017-02-15T08:47:15.544Z,4.92
2017-02-15T08:48:24.541Z,4.92
2017-02-15T08:49:34.024Z,5.04
2017-02-15T08:50:43.020Z,4.97
2017-02-15T08:51:52.089Z,5.02
2017-02-15T08:53:01.183Z,4.97
2017-02-15T08:54:10.176Z,5.02
2017-02-15T08:55:19.182Z,5.06
2017-02-15T08:56:28.195Z,5.12
2017-02-15T08:57:37.681Z,5.12
2017-02-15T08:58:46.674Z,5.15
2017-02-15T08:59:55.659Z,5.12
2017-02-15T09:01:05.048Z,5.04
2017-02-15T09:02:14.039Z,5.17
2017-02-15T09:03:23.125Z,5.15
2017-02-15T09:04:32.225Z,5.25
2017-02-15T09:05:41.302Z,5.17
2017-02-15T09:06:50.640Z,5.24
2017-02-15T09:07:59.717Z,5.25
2017-02-15T09:09:08.714Z,5.33
2017-02-15T09:10:17.795Z,5.31
2017-02-15T09:11:26.891Z,5.28
2017-02-15T09:12:36.302Z,5.33
2017-02-15T09:13:45.297Z,5.31
2017-02-15T09:14:54.474Z,5.39
2017-02-15T09:16:03.698Z,5.4
2017-02-15T09:17:12.704Z,5.51
2017-02-15T09:18:21.803Z,5.57
2017-02-15T09:19:30.861Z,5.57
2017-02-15T09:20:39.873Z,5.63
2017-02-15T09:21:48.877Z,5.74
2017-02-15T09:22:57.866Z,5.68
2017-02-15T09:24:06.857Z,5.72
2017-02-15T09:25:15.903Z,5.82
2017-02-15T09:26:24.902Z,5.72
2017-02-15T09:27:33.892Z,5.86
2017-02-15T09:28:42.870Z,5.78
2017-02-15T09:29:51.855Z,5.81
2017-02-15T09:31:00.850Z,5.94
2017-02-15T09:32:09.954Z,5.94
2017-02-15T09:33:19.815Z,5.96
2017-02-15T09:34:29.733Z,5.96
2017-02-15T09:35:39.353Z,6
2017-02-15T09:36:48.631Z,6.04
2017-02-15T09:37:57.724Z,6.03
2017-02-15T09:39:07.125Z,6.17
2017-02-15T09:40:16.200Z,6.22
2017-02-15T09:41:25.700Z,6.33
2017-02-15T09:42:35.207Z,6.25
2017-02-15T09:43:44.835Z,6.38
2017-02-15T09:44:53.835Z,6.43
2017-02-15T09:46:02.833Z,6.54
2017-02-15T09:47:13.562Z,6.59
2017-02-15T09:48:25.214Z,6.66
2017-02-15T09:49:34.646Z,6.74
2017-02-15T09:50:43.648Z,6.67
2017-02-15T09:51:52.643Z,6.73
2017-02-15T09:53:01.639Z,6.85
2017-02-15T09:54:10.627Z,6.74
2017-02-15T09:55:19.841Z,6.88
2017-02-15T09:56:29.181Z,6.97
2017-02-15T09:57:38.195Z,6.95
2017-02-15T09:58:47.205Z,6.92
2017-02-15T09:59:56.905Z,6.94
2017-02-15T10:01:05.892Z,7.1
2017-02-15T10:02:15.614Z,7.15
2017-02-15T10:03:25.693Z,7.2
2017-02-15T10:04:35.345Z,7.17
2017-02-15T10:05:44.558Z,7.15
2017-02-15T10:06:53.580Z,7.34
2017-02-15T10:08:03.289Z,7.28
2017-02-15T10:09:13.581Z,7.34
2017-02-15T10:10:23.641Z,7.49
2017-02-15T10:11:34.497Z,7.49
2017-02-15T10:12:46.098Z,7.55
2017-02-15T10:13:56.496Z,7.6
2017-02-15T10:15:05.854Z,7.67
2017-02-15T10:16:16.356Z,7.72
2017-02-15T10:17:26.833Z,7.71
2017-02-15T10:18:35.850Z,7.82
2017-02-15T10:19:46.003Z,7.79
2017-02-15T10:20:55.679Z,7.95
2017-02-15T10:22:05.563Z,7.85
2017-02-15T10:23:16.984Z,7.97
2017-02-15T10:24:26.061Z,7.98
2017-02-15T10:25:35.346Z,7.9
2017-02-15T10:26:44.443Z,8.04
2017-02-15T10:27:53.938Z,8.07
2017-02-15T10:29:02.930Z,8.07
2017-02-15T10:30:11.975Z,8.19
2017-02-15T10:31:20.991Z,8.28
2017-02-15T10:32:29.983Z,8.26
2017-02-15T10:33:38.991Z,8.16
2017-02-15T10:34:47.987Z,8.28
2017-02-15T10:35:57.177Z,8.4
2017-02-15T10:37:06.182Z,8.44
2017-02-15T10:38:15.212Z,8.43
2017-02-15T10:39:24.225Z,8.52
2017-02-15T10:40:33.713Z,8.56
2017-02-15T10:41:42.793Z,8.61
2017-02-15T10:42:51.783Z,8.56
2017-02-15T10:44:00.769Z,8.59
2017-02-15T10:45:09.790Z,8.63
2017-02-15T10:46:18.865Z,8.68
2017-02-15T10:47:27.852Z,8.81
2017-02-15T10:48:36.853Z,8.79
2017-02-15T10:49:45.856Z,8.81
2017-02-15T10:50:54.847Z,8.86
2017-02-15T10:52:03.840Z,8.84
2017-02-15T10:53:12.825Z,8.91
2017-02-15T10:54:21.824Z,8.91
2017-02-15T10:55:30.836Z,8.91
2017-02-15T10:56:39.832Z,9.01
2017-02-15T10:57:50.496Z,9.11
2017-02-15T10:58:59.499Z,9.1
2017-02-15T11:00:08.496Z,9.1
2017-02-15T11:01:17.516Z,9.14
2017-02-15T11:02:26.627Z,9.2
2017-02-15T11:03:35.621Z,9.17
2017-02-15T11:04:44.626Z,9.21
2017-02-15T11:05:53.613Z,9.33
2017-02-15T11:07:03.047Z,9.35
2017-02-15T11:08:12.034Z,9.32
2017-02-15T11:09:21.058Z,9.32
2017-02-15T11:10:30.144Z,9.39
2017-02-15T11:11:39.141Z,9.4
2017-02-15T11:12:48.144Z,9.42
2017-02-15T11:13:57.225Z,9.46
2017-02-15T11:15:06.215Z,9.42
2017-02-15T11:16:15.219Z,9.48
2017-02-15T11:17:24.253Z,9.43
2017-02-15T11:18:33.263Z,9.56
2017-02-15T11:19:42.355Z,9.54
2017-02-15T11:20:51.360Z,9.65
2017-02-15T11:22:00.377Z,9.66
2017-02-15T11:23:09.378Z,9.69
2017-02-15T11:24:18.388Z,9.79
2017-02-15T11:25:27.464Z,9.76
2017-02-15T11:26:36.487Z,9.89
2017-02-15T11:27:45.579Z,9.86
2017-02-15T11:28:54.997Z,9.87
2017-02-15T11:30:04.008Z,9.94
2017-02-15T11:31:13.014Z,10.02
2017-02-15T11:32:22.034Z,9.94
2017-02-15T11:33:31.036Z,10.04
2017-02-15T11:34:40.058Z,10.02
2017-02-15T11:35:49.058Z,10.14
2017-02-15T11:36:58.075Z,10.09
2017-02-15T11:38:07.074Z,10.15
2017-02-15T11:39:16.094Z,10.18
2017-02-15T11:40:25.090Z,10.2
2017-02-15T11:41:34.090Z,10.26
2017-02-15T11:42:43.094Z,10.26
2017-02-15T11:43:52.080Z,10.29
2017-02-15T11:45:01.071Z,10.27
2017-02-15T11:46:10.162Z,10.33
2017-02-15T11:47:19.179Z,10.34
2017-02-15T11:48:28.171Z,10.41
2017-02-15T11:49:37.164Z,10.34
2017-02-15T11:50:46.335Z,10.52
2017-02-15T11:51:56.165Z,10.47
2017-02-15T11:53:06.511Z,10.48
2017-02-15T11:54:15.923Z,10.47
2017-02-15T11:55:24.922Z,10.52
2017-02-15T11:56:35.748Z,10.45
2017-02-15T11:57:45.450Z,10.44
2017-02-15T11:58:54.928Z,10.61
2017-02-15T12:00:04.060Z,10.55
2017-02-15T12:01:13.596Z,10.52
2017-02-15T12:02:22.597Z,10.63
2017-02-15T12:03:32.737Z,10.56
2017-02-15T12:04:41.838Z,10.64
2017-02-15T12:05:51.443Z,10.63
2017-02-15T12:07:00.447Z,10.66
2017-02-15T12:08:10.571Z,10.7
2017-02-15T12:09:20.132Z,10.68
2017-02-15T12:10:30.140Z,10.74
2017-02-15T12:11:39.948Z,10.76
2017-02-15T12:12:50.367Z,10.74
2017-02-15T12:13:59.825Z,10.74
2017-02-15T12:15:10.201Z,10.85
2017-02-15T12:16:20.975Z,10.84
2017-02-15T12:17:30.381Z,10.89
2017-02-15T12:18:39.562Z,10.88
2017-02-15T12:19:48.997Z,10.92
2017-02-15T12:20:58.255Z,10.91
2017-02-15T12:22:08.253Z,10.96
2017-02-15T12:23:18.528Z,10.91
2017-02-15T12:24:27.536Z,11
2017-02-15T12:25:36.530Z,10.97
2017-02-15T12:26:46.238Z,11
2017-02-15T12:27:55.320Z,11
2017-02-15T12:29:05.612Z,11.07
2017-02-15T12:30:14.616Z,11.04
2017-02-15T12:31:25.326Z,11.11
2017-02-15T12:32:34.657Z,11.03
2017-02-15T12:33:44.015Z,11.1
2017-02-15T12:34:53.403Z,11.06
2017-02-15T12:36:02.395Z,11.14
2017-02-15T12:37:11.393Z,11.07
2017-02-15T12:38:20.384Z,11.14
2017-02-15T12:39:29.384Z,11.18
2017-02-15T12:40:39.107Z,11.25
2017-02-15T12:41:48.095Z,11.11
2017-02-15T12:42:58.921Z,11.14
2017-02-15T12:44:07.925Z,11.18
2017-02-15T12:45:18.549Z,11.17
2017-02-15T12:46:28.380Z,11.15
2017-02-15T12:47:37.803Z,11.17
2017-02-15T12:48:48.054Z,11.15
2017-02-15T12:49:58.095Z,11.22
2017-02-15T12:51:07.100Z,11.25
2017-02-15T12:52:17.602Z,11.25
2017-02-15T12:53:27.557Z,11.24
2017-02-15T12:54:39.837Z,11.32
2017-02-15T12:55:51.699Z,11.33
2017-02-15T12:57:01.614Z,11.27
2017-02-15T12:58:11.344Z,11.29
2017-02-15T12:59:21.848Z,11.37
2017-02-15T13:00:30.919Z,11.36
2017-02-15T13:01:41.169Z,11.36
2017-02-15T13:02:52.600Z,11.39
2017-02-15T13:04:06.979Z,11.32
2017-02-15T13:05:15.968Z,11.32
2017-02-15T13:06:24.989Z,11.46
2017-02-15T13:07:33.978Z,11.47
2017-02-15T13:08:43.021Z,11.42
2017-02-15T13:09:52.113Z,11.44
2017-02-15T13:11:01.210Z,11.49
2017-02-15T13:12:10.221Z,11.47
2017-02-15T13:13:19.242Z,11.52
2017-02-15T13:14:28.277Z,11.6
2017-02-15T13:15:37.266Z,11.52
2017-02-15T13:16:46.272Z,11.42
2017-02-15T13:17:55.288Z,11.49
2017-02-15T13:19:04.294Z,11.55
2017-02-15T13:20:13.305Z,11.58
2017-02-15T13:21:23.571Z,11.6
2017-02-15T13:22:32.701Z,11.57
2017-02-15T13:23:42.350Z,11.61
2017-02-15T13:24:51.344Z,11.69
2017-02-15T13:26:00.342Z,11.69
2017-02-15T13:27:09.350Z,11.58
2017-02-15T13:28:19.691Z,11.65
2017-02-15T13:29:28.789Z,11.67
2017-02-15T13:30:37.788Z,11.73
2017-02-15T13:31:48.135Z,11.7
2017-02-15T13:32:57.227Z,11.7
2017-02-15T13:34:06.328Z,11.7
2017-02-15T13:35:15.369Z,11.65
2017-02-15T13:36:24.369Z,11.65
2017-02-15T13:37:33.375Z,11.69
2017-02-15T13:38:42.370Z,11.7
2017-02-15T13:39:51.363Z,11.7
2017-02-15T13:41:00.367Z,11.6
2017-02-15T13:42:09.369Z,11.67
2017-02-15T13:43:18.487Z,11.64
2017-02-15T13:44:27.486Z,11.57
2017-02-15T13:45:36.494Z,11.6
2017-02-15T13:46:45.587Z,11.6
2017-02-15T13:47:54.581Z,11.58
2017-02-15T13:49:03.578Z,11.62
2017-02-15T13:50:12.597Z,11.7
2017-02-15T13:51:21.988Z,11.69
2017-02-15T13:52:30.999Z,11.62
2017-02-15T13:53:40.001Z,11.65
2017-02-15T13:54:49.079Z,11.72
2017-02-15T13:55:58.078Z,11.73
2017-02-15T13:57:07.062Z,11.73
2017-02-15T13:58:16.155Z,11.7
2017-02-15T13:59:25.156Z,11.7
2017-02-15T14:00:34.173Z,11.7
2017-02-15T14:01:43.671Z,11.75
2017-02-15T14:02:52.677Z,11.73
2017-02-15T14:04:01.763Z,11.79
2017-02-15T14:05:10.869Z,11.82
2017-02-15T14:06:19.955Z,11.78
2017-02-15T14:07:28.953Z,11.82
2017-02-15T14:08:37.940Z,11.76
2017-02-15T14:09:47.058Z,11.85
2017-02-15T14:10:56.075Z,11.85
2017-02-15T14:12:05.104Z,11.8
2017-02-15T14:13:14.094Z,11.85
2017-02-15T14:14:23.092Z,11.78
2017-02-15T14:15:32.105Z,11.79
2017-02-15T14:16:41.113Z,11.83
2017-02-15T14:17:50.117Z,11.82
2017-02-15T14:18:59.116Z,11.82
2017-02-15T14:20:08.113Z,11.8
2017-02-15T14:21:17.107Z,11.88
2017-02-15T14:22:26.105Z,11.86
2017-02-15T14:23:35.098Z,11.78
2017-02-15T14:24:44.182Z,11.79
2017-02-15T14:25:53.669Z,11.82
2017-02-15T14:27:02.668Z,11.8
2017-02-15T14:28:11.658Z,11.82
2017-02-15T14:29:20.829Z,11.88
2017-02-15T14:30:29.979Z,11.88
2017-02-15T14:31:39.098Z,11.85
2017-02-15T14:32:48.096Z,11.8
2017-02-15T14:33:57.107Z,11.75
2017-02-15T14:35:07.059Z,11.8
2017-02-15T14:36:17.316Z,11.85
2017-02-15T14:37:27.211Z,11.82
2017-02-15T14:38:36.622Z,11.72
2017-02-15T14:39:45.617Z,11.75
2017-02-15T14:40:56.097Z,11.72
2017-02-15T14:42:05.970Z,11.73
2017-02-15T14:43:15.265Z,11.73
2017-02-15T14:44:24.771Z,11.78
2017-02-15T14:45:35.317Z,11.69
2017-02-15T14:46:46.322Z,11.79
2017-02-15T14:47:55.600Z,11.76
2017-02-15T14:49:05.565Z,11.73
2017-02-15T14:50:15.052Z,11.67
2017-02-15T14:51:24.063Z,11.64
2017-02-15T14:52:33.620Z,11.69
2017-02-15T14:53:42.987Z,11.67
2017-02-15T14:54:52.905Z,11.69
2017-02-15T14:56:02.497Z,11.69
2017-02-15T14:57:11.493Z,11.72
2017-02-15T14:58:20.984Z,11.61
2017-02-15T14:59:29.999Z,11.58
2017-02-15T15:00:39.440Z,11.57
2017-02-15T15:01:48.459Z,11.61
2017-02-15T15:02:57.584Z,11.58
2017-02-15T15:04:07.048Z,11.52
2017-02-15T15:05:16.408Z,11.6
2017-02-15T15:06:25.663Z,11.47
2017-02-15T15:07:34.820Z,11.62
2017-02-15T15:08:44.056Z,11.44
2017-02-15T15:09:54.196Z,11.43
2017-02-15T15:11:04.130Z,11.6
2017-02-15T15:12:13.444Z,11.51
2017-02-15T15:13:22.888Z,11.54
2017-02-15T15:14:32.370Z,11.44
2017-02-15T15:15:42.083Z,11.49
2017-02-15T15:16:51.968Z,11.51
2017-02-15T15:18:01.381Z,11.43
2017-02-15T15:19:10.818Z,11.47